sensor_id;sensor_type;location;lat;lon;timestamp;P1;durP1;ratioP1;P2;durP2;ratioP2
52962;SDS011;38827;53.024;6.596;2023-04-25T00:00:48;19.27;;;4.13;;
52962;SDS011;38827;53.024;6.596;2023-04-25T00:03:14;19.02;;;3.70;;
52962;SDS011;38827;53.024;6.596;2023-04-25T00:05:39;25.48;;;4.32;;
52962;SDS011;38827;53.024;6.596;2023-04-25T00:08:05;22.17;;;5.07;;
52962;SDS011;38827;53.024;6.596;2023-04-25T00:10:34;20.58;;;4.28;;
52962;SDS011;38827;53.024;6.596;2023-04-25T00:12:59;26.35;;;4.65;;
52962;SDS011;38827;53.024;6.596;2023-04-25T00:15:28;21.90;;;4.15;;
52962;SDS011;38827;53.024;6.596;2023-04-25T00:17:57;22.20;;;4.90;;
52962;SDS011;38827;53.024;6.596;2023-04-25T00:20:22;20.83;;;4.28;;
52962;SDS011;38827;53.024;6.596;2023-04-25T00:22:50;18.35;;;4.72;;
52962;SDS011;38827;53.024;6.596;2023-04-25T00:25:16;17.90;;;3.83;;
52962;SDS011;38827;53.024;6.596;2023-04-25T00:27:41;25.42;;;4.93;;
52962;SDS011;38827;53.024;6.596;2023-04-25T00:30:07;21.23;;;4.60;;
52962;SDS011;38827;53.024;6.596;2023-04-25T00:32:33;21.95;;;4.85;;
52962;SDS011;38827;53.024;6.596;2023-04-25T00:34:59;21.02;;;4.95;;
52962;SDS011;38827;53.024;6.596;2023-04-25T00:37:26;21.95;;;5.32;;
52962;SDS011;38827;53.024;6.596;2023-04-25T00:39:52;23.70;;;4.45;;
52962;SDS011;38827;53.024;6.596;2023-04-25T00:42:21;23.98;;;4.55;;
52962;SDS011;38827;53.024;6.596;2023-04-25T00:44:47;25.02;;;5.05;;
52962;SDS011;38827;53.024;6.596;2023-04-25T00:47:13;27.37;;;5.07;;
52962;SDS011;38827;53.024;6.596;2023-04-25T00:49:39;19.92;;;4.15;;
52962;SDS011;38827;53.024;6.596;2023-04-25T00:52:04;19.70;;;4.68;;
52962;SDS011;38827;53.024;6.596;2023-04-25T00:54:30;23.98;;;4.65;;
52962;SDS011;38827;53.024;6.596;2023-04-25T00:56:56;23.30;;;4.43;;
52962;SDS011;38827;53.024;6.596;2023-04-25T00:59:22;25.05;;;4.63;;
52962;SDS011;38827;53.024;6.596;2023-04-25T01:01:49;24.42;;;4.18;;
52962;SDS011;38827;53.024;6.596;2023-04-25T01:04:15;27.08;;;5.50;;
52962;SDS011;38827;53.024;6.596;2023-04-25T01:06:41;26.67;;;4.65;;
52962;SDS011;38827;53.024;6.596;2023-04-25T01:09:07;21.70;;;3.97;;
52962;SDS011;38827;53.024;6.596;2023-04-25T01:11:33;20.92;;;4.35;;
52962;SDS011;38827;53.024;6.596;2023-04-25T01:13:59;20.27;;;4.03;;
52962;SDS011;38827;53.024;6.596;2023-04-25T01:16:25;16.75;;;3.97;;
52962;SDS011;38827;53.024;6.596;2023-04-25T01:18:51;17.77;;;4.47;;
52962;SDS011;38827;53.024;6.596;2023-04-25T01:21:20;17.02;;;4.00;;
52962;SDS011;38827;53.024;6.596;2023-04-25T01:23:49;27.58;;;4.25;;
52962;SDS011;38827;53.024;6.596;2023-04-25T01:26:18;19.27;;;3.80;;
52962;SDS011;38827;53.024;6.596;2023-04-25T01:28:46;24.70;;;4.28;;
52962;SDS011;38827;53.024;6.596;2023-04-25T01:33:39;19.67;;;3.42;;
52962;SDS011;38827;53.024;6.596;2023-04-25T01:36:05;16.20;;;2.85;;
52962;SDS011;38827;53.024;6.596;2023-04-25T01:38:31;17.35;;;3.90;;
52962;SDS011;38827;53.024;6.596;2023-04-25T01:40:58;18.67;;;2.95;;
52962;SDS011;38827;53.024;6.596;2023-04-25T01:43:27;18.20;;;3.55;;
52962;SDS011;38827;53.024;6.596;2023-04-25T01:45:53;15.50;;;3.58;;
52962;SDS011;38827;53.024;6.596;2023-04-25T01:48:24;19.02;;;3.65;;
52962;SDS011;38827;53.024;6.596;2023-04-25T01:50:50;19.30;;;3.80;;
52962;SDS011;38827;53.024;6.596;2023-04-25T01:53:16;15.10;;;3.08;;
52962;SDS011;38827;53.024;6.596;2023-04-25T01:55:42;19.80;;;3.75;;
52962;SDS011;38827;53.024;6.596;2023-04-25T01:58:08;20.25;;;3.63;;
52962;SDS011;38827;53.024;6.596;2023-04-25T02:00:35;14.85;;;3.10;;
52962;SDS011;38827;53.024;6.596;2023-04-25T02:03:03;16.45;;;3.90;;
52962;SDS011;38827;53.024;6.596;2023-04-25T02:05:37;18.60;;;3.70;;
52962;SDS011;38827;53.024;6.596;2023-04-25T02:08:06;16.60;;;3.35;;
52962;SDS011;38827;53.024;6.596;2023-04-25T02:10:33;19.52;;;3.42;;
52962;SDS011;38827;53.024;6.596;2023-04-25T02:15:38;15.43;;;3.63;;
52962;SDS011;38827;53.024;6.596;2023-04-25T02:18:04;18.95;;;3.72;;
52962;SDS011;38827;53.024;6.596;2023-04-25T02:20:31;16.30;;;3.10;;
52962;SDS011;38827;53.024;6.596;2023-04-25T02:22:58;13.65;;;2.80;;
52962;SDS011;38827;53.024;6.596;2023-04-25T02:25:24;17.80;;;2.83;;
52962;SDS011;38827;53.024;6.596;2023-04-25T02:27:50;13.38;;;3.30;;
52962;SDS011;38827;53.024;6.596;2023-04-25T02:30:16;17.30;;;3.60;;
52962;SDS011;38827;53.024;6.596;2023-04-25T02:32:42;22.33;;;3.83;;
52962;SDS011;38827;53.024;6.596;2023-04-25T02:35:08;16.30;;;2.95;;
52962;SDS011;38827;53.024;6.596;2023-04-25T02:37:35;18.63;;;3.30;;
52962;SDS011;38827;53.024;6.596;2023-04-25T02:40:01;16.85;;;4.03;;
52962;SDS011;38827;53.024;6.596;2023-04-25T02:42:30;14.95;;;3.03;;
52962;SDS011;38827;53.024;6.596;2023-04-25T02:44:56;15.52;;;3.03;;
52962;SDS011;38827;53.024;6.596;2023-04-25T02:47:22;18.60;;;3.40;;
52962;SDS011;38827;53.024;6.596;2023-04-25T02:49:47;18.92;;;4.53;;
52962;SDS011;38827;53.024;6.596;2023-04-25T02:52:13;18.00;;;2.92;;
52962;SDS011;38827;53.024;6.596;2023-04-25T02:54:42;17.42;;;3.35;;
52962;SDS011;38827;53.024;6.596;2023-04-25T02:57:08;18.77;;;3.10;;
52962;SDS011;38827;53.024;6.596;2023-04-25T02:59:34;15.02;;;3.25;;
52962;SDS011;38827;53.024;6.596;2023-04-25T03:02:00;20.35;;;3.85;;
52962;SDS011;38827;53.024;6.596;2023-04-25T03:04:26;19.70;;;3.90;;
52962;SDS011;38827;53.024;6.596;2023-04-25T03:06:52;22.02;;;3.38;;
52962;SDS011;38827;53.024;6.596;2023-04-25T03:09:18;12.85;;;2.78;;
52962;SDS011;38827;53.024;6.596;2023-04-25T03:11:45;16.38;;;3.47;;
52962;SDS011;38827;53.024;6.596;2023-04-25T03:14:11;12.37;;;2.67;;
52962;SDS011;38827;53.024;6.596;2023-04-25T03:16:37;18.52;;;2.97;;
52962;SDS011;38827;53.024;6.596;2023-04-25T03:19:03;15.93;;;3.22;;
52962;SDS011;38827;53.024;6.596;2023-04-25T03:21:30;15.07;;;2.83;;
52962;SDS011;38827;53.024;6.596;2023-04-25T03:23:57;18.45;;;3.35;;
52962;SDS011;38827;53.024;6.596;2023-04-25T03:26:23;12.48;;;2.83;;
52962;SDS011;38827;53.024;6.596;2023-04-25T03:28:49;15.18;;;3.00;;
52962;SDS011;38827;53.024;6.596;2023-04-25T03:31:15;15.50;;;3.08;;
52962;SDS011;38827;53.024;6.596;2023-04-25T03:33:41;16.73;;;2.85;;
52962;SDS011;38827;53.024;6.596;2023-04-25T03:36:08;14.68;;;3.00;;
52962;SDS011;38827;53.024;6.596;2023-04-25T03:38:33;15.82;;;2.95;;
52962;SDS011;38827;53.024;6.596;2023-04-25T03:41:00;16.63;;;3.07;;
52962;SDS011;38827;53.024;6.596;2023-04-25T03:43:26;18.48;;;3.85;;
52962;SDS011;38827;53.024;6.596;2023-04-25T03:45:56;15.77;;;2.58;;
52962;SDS011;38827;53.024;6.596;2023-04-25T03:48:22;17.88;;;4.00;;
52962;SDS011;38827;53.024;6.596;2023-04-25T03:50:54;12.75;;;2.80;;
52962;SDS011;38827;53.024;6.596;2023-04-25T03:53:24;14.10;;;2.80;;
52962;SDS011;38827;53.024;6.596;2023-04-25T03:55:50;15.68;;;2.50;;
52962;SDS011;38827;53.024;6.596;2023-04-25T03:58:17;19.30;;;2.90;;
52962;SDS011;38827;53.024;6.596;2023-04-25T04:00:42;12.65;;;2.55;;
52962;SDS011;38827;53.024;6.596;2023-04-25T04:03:08;10.27;;;2.33;;
52962;SDS011;38827;53.024;6.596;2023-04-25T04:05:34;14.95;;;2.83;;
52962;SDS011;38827;53.024;6.596;2023-04-25T04:07:59;8.73;;;2.22;;
52962;SDS011;38827;53.024;6.596;2023-04-25T04:10:25;9.43;;;2.45;;
52962;SDS011;38827;53.024;6.596;2023-04-25T04:12:51;15.50;;;3.30;;
52962;SDS011;38827;53.024;6.596;2023-04-25T04:15:16;10.15;;;2.40;;
52962;SDS011;38827;53.024;6.596;2023-04-25T04:17:42;11.40;;;1.95;;
52962;SDS011;38827;53.024;6.596;2023-04-25T04:20:08;10.93;;;2.65;;
52962;SDS011;38827;53.024;6.596;2023-04-25T04:22:34;14.50;;;2.38;;
52962;SDS011;38827;53.024;6.596;2023-04-25T04:25:01;9.32;;;2.10;;
52962;SDS011;38827;53.024;6.596;2023-04-25T04:27:27;6.57;;;1.92;;
52962;SDS011;38827;53.024;6.596;2023-04-25T04:29:54;7.65;;;2.15;;
52962;SDS011;38827;53.024;6.596;2023-04-25T04:32:19;8.77;;;1.90;;
52962;SDS011;38827;53.024;6.596;2023-04-25T04:34:45;8.00;;;1.75;;
52962;SDS011;38827;53.024;6.596;2023-04-25T04:37:12;9.30;;;2.30;;
52962;SDS011;38827;53.024;6.596;2023-04-25T04:39:38;11.13;;;2.20;;
52962;SDS011;38827;53.024;6.596;2023-04-25T04:42:04;9.65;;;2.22;;
52962;SDS011;38827;53.024;6.596;2023-04-25T04:44:30;9.63;;;2.20;;
52962;SDS011;38827;53.024;6.596;2023-04-25T04:47:00;10.70;;;2.28;;
52962;SDS011;38827;53.024;6.596;2023-04-25T04:49:27;10.68;;;1.95;;
52962;SDS011;38827;53.024;6.596;2023-04-25T04:51:52;9.60;;;2.13;;
52962;SDS011;38827;53.024;6.596;2023-04-25T04:54:19;11.05;;;1.98;;
52962;SDS011;38827;53.024;6.596;2023-04-25T04:56:45;11.45;;;2.00;;
52962;SDS011;38827;53.024;6.596;2023-04-25T04:59:11;15.32;;;3.03;;
52962;SDS011;38827;53.024;6.596;2023-04-25T05:01:36;9.02;;;2.00;;
52962;SDS011;38827;53.024;6.596;2023-04-25T05:04:02;13.43;;;2.42;;
52962;SDS011;38827;53.024;6.596;2023-04-25T05:06:28;12.60;;;2.47;;
52962;SDS011;38827;53.024;6.596;2023-04-25T05:08:57;8.98;;;2.28;;
52962;SDS011;38827;53.024;6.596;2023-04-25T05:11:24;11.75;;;2.40;;
52962;SDS011;38827;53.024;6.596;2023-04-25T05:13:53;9.38;;;2.47;;
52962;SDS011;38827;53.024;6.596;2023-04-25T05:16:19;11.32;;;2.60;;
52962;SDS011;38827;53.024;6.596;2023-04-25T05:18:45;10.05;;;1.65;;
52962;SDS011;38827;53.024;6.596;2023-04-25T05:21:12;9.07;;;2.60;;
52962;SDS011;38827;53.024;6.596;2023-04-25T05:23:37;13.18;;;2.25;;
52962;SDS011;38827;53.024;6.596;2023-04-25T05:26:03;7.68;;;1.88;;
52962;SDS011;38827;53.024;6.596;2023-04-25T05:28:30;14.00;;;2.63;;
52962;SDS011;38827;53.024;6.596;2023-04-25T05:30:56;10.38;;;2.17;;
52962;SDS011;38827;53.024;6.596;2023-04-25T05:33:21;10.75;;;2.83;;
52962;SDS011;38827;53.024;6.596;2023-04-25T05:35:47;13.38;;;2.40;;
52962;SDS011;38827;53.024;6.596;2023-04-25T05:38:13;13.50;;;2.30;;
52962;SDS011;38827;53.024;6.596;2023-04-25T05:40:39;10.43;;;2.38;;
52962;SDS011;38827;53.024;6.596;2023-04-25T05:43:05;10.20;;;2.03;;
52962;SDS011;38827;53.024;6.596;2023-04-25T05:45:30;12.45;;;2.72;;
52962;SDS011;38827;53.024;6.596;2023-04-25T05:47:56;12.98;;;2.30;;
52962;SDS011;38827;53.024;6.596;2023-04-25T05:50:22;11.20;;;2.15;;
52962;SDS011;38827;53.024;6.596;2023-04-25T05:52:48;9.90;;;2.80;;
52962;SDS011;38827;53.024;6.596;2023-04-25T05:55:13;9.30;;;2.05;;
52962;SDS011;38827;53.024;6.596;2023-04-25T05:57:40;11.65;;;2.42;;
52962;SDS011;38827;53.024;6.596;2023-04-25T06:00:14;14.05;;;2.55;;
52962;SDS011;38827;53.024;6.596;2023-04-25T06:02:41;11.68;;;2.75;;
52962;SDS011;38827;53.024;6.596;2023-04-25T06:05:07;15.20;;;2.17;;
52962;SDS011;38827;53.024;6.596;2023-04-25T06:07:33;11.10;;;2.35;;
52962;SDS011;38827;53.024;6.596;2023-04-25T06:09:59;12.95;;;2.75;;
52962;SDS011;38827;53.024;6.596;2023-04-25T06:12:26;14.68;;;2.50;;
52962;SDS011;38827;53.024;6.596;2023-04-25T06:14:51;11.15;;;2.63;;
52962;SDS011;38827;53.024;6.596;2023-04-25T06:17:17;17.92;;;2.88;;
52962;SDS011;38827;53.024;6.596;2023-04-25T06:19:43;14.88;;;2.40;;
52962;SDS011;38827;53.024;6.596;2023-04-25T06:22:09;17.73;;;3.63;;
52962;SDS011;38827;53.024;6.596;2023-04-25T06:24:35;9.60;;;1.92;;
52962;SDS011;38827;53.024;6.596;2023-04-25T06:27:01;8.55;;;2.10;;
52962;SDS011;38827;53.024;6.596;2023-04-25T06:29:27;13.13;;;2.38;;
52962;SDS011;38827;53.024;6.596;2023-04-25T06:31:53;10.73;;;2.53;;
52962;SDS011;38827;53.024;6.596;2023-04-25T06:34:19;13.13;;;2.63;;
52962;SDS011;38827;53.024;6.596;2023-04-25T06:36:45;10.10;;;2.78;;
52962;SDS011;38827;53.024;6.596;2023-04-25T06:39:11;9.75;;;2.08;;
52962;SDS011;38827;53.024;6.596;2023-04-25T06:41:37;10.15;;;1.92;;
52962;SDS011;38827;53.024;6.596;2023-04-25T06:44:03;8.30;;;1.50;;
52962;SDS011;38827;53.024;6.596;2023-04-25T06:46:28;11.57;;;2.47;;
52962;SDS011;38827;53.024;6.596;2023-04-25T06:48:54;6.40;;;1.70;;
52962;SDS011;38827;53.024;6.596;2023-04-25T06:51:20;10.00;;;1.90;;
52962;SDS011;38827;53.024;6.596;2023-04-25T06:53:46;7.03;;;1.65;;
52962;SDS011;38827;53.024;6.596;2023-04-25T06:56:12;9.77;;;1.90;;
52962;SDS011;38827;53.024;6.596;2023-04-25T06:58:38;8.27;;;2.13;;
52962;SDS011;38827;53.024;6.596;2023-04-25T07:01:03;11.65;;;2.55;;
52962;SDS011;38827;53.024;6.596;2023-04-25T07:03:30;11.67;;;2.00;;
52962;SDS011;38827;53.024;6.596;2023-04-25T07:05:55;9.93;;;2.13;;
52962;SDS011;38827;53.024;6.596;2023-04-25T07:08:21;8.63;;;1.88;;
52962;SDS011;38827;53.024;6.596;2023-04-25T07:10:46;10.40;;;1.80;;
52962;SDS011;38827;53.024;6.596;2023-04-25T07:13:12;8.57;;;1.67;;
52962;SDS011;38827;53.024;6.596;2023-04-25T07:15:38;6.18;;;1.52;;
52962;SDS011;38827;53.024;6.596;2023-04-25T07:18:03;8.43;;;1.60;;
52962;SDS011;38827;53.024;6.596;2023-04-25T07:20:29;9.00;;;1.70;;
52962;SDS011;38827;53.024;6.596;2023-04-25T07:22:56;9.18;;;2.03;;
52962;SDS011;38827;53.024;6.596;2023-04-25T07:25:22;12.73;;;1.90;;
52962;SDS011;38827;53.024;6.596;2023-04-25T07:27:48;7.70;;;1.40;;
52962;SDS011;38827;53.024;6.596;2023-04-25T07:30:14;13.82;;;1.75;;
52962;SDS011;38827;53.024;6.596;2023-04-25T07:32:40;7.65;;;1.88;;
52962;SDS011;38827;53.024;6.596;2023-04-25T07:35:05;8.95;;;2.30;;
52962;SDS011;38827;53.024;6.596;2023-04-25T07:37:32;12.57;;;1.70;;
52962;SDS011;38827;53.024;6.596;2023-04-25T07:40:01;5.20;;;1.63;;
52962;SDS011;38827;53.024;6.596;2023-04-25T07:42:31;5.70;;;1.30;;
52962;SDS011;38827;53.024;6.596;2023-04-25T07:44:57;11.23;;;1.60;;
52962;SDS011;38827;53.024;6.596;2023-04-25T07:47:23;5.88;;;1.50;;
52962;SDS011;38827;53.024;6.596;2023-04-25T07:49:49;6.38;;;1.48;;
52962;SDS011;38827;53.024;6.596;2023-04-25T07:52:14;9.10;;;1.85;;
52962;SDS011;38827;53.024;6.596;2023-04-25T07:54:40;8.02;;;1.50;;
52962;SDS011;38827;53.024;6.596;2023-04-25T07:57:06;5.50;;;1.30;;
52962;SDS011;38827;53.024;6.596;2023-04-25T07:59:32;8.95;;;1.77;;
52962;SDS011;38827;53.024;6.596;2023-04-25T08:01:58;4.78;;;1.40;;
52962;SDS011;38827;53.024;6.596;2023-04-25T08:04:24;7.30;;;1.70;;
52962;SDS011;38827;53.024;6.596;2023-04-25T08:06:50;7.68;;;1.60;;
52962;SDS011;38827;53.024;6.596;2023-04-25T08:09:16;10.10;;;1.60;;
52962;SDS011;38827;53.024;6.596;2023-04-25T08:11:42;5.85;;;1.70;;
52962;SDS011;38827;53.024;6.596;2023-04-25T08:14:08;6.07;;;1.75;;
52962;SDS011;38827;53.024;6.596;2023-04-25T08:16:34;8.02;;;1.48;;
52962;SDS011;38827;53.024;6.596;2023-04-25T08:19:00;6.93;;;1.40;;
52962;SDS011;38827;53.024;6.596;2023-04-25T08:21:27;5.32;;;1.65;;
52962;SDS011;38827;53.024;6.596;2023-04-25T08:23:53;5.88;;;1.10;;
52962;SDS011;38827;53.024;6.596;2023-04-25T08:26:19;5.72;;;1.10;;
52962;SDS011;38827;53.024;6.596;2023-04-25T08:28:45;6.53;;;1.20;;
52962;SDS011;38827;53.024;6.596;2023-04-25T08:31:11;6.03;;;1.15;;
52962;SDS011;38827;53.024;6.596;2023-04-25T08:33:37;8.65;;;1.55;;
52962;SDS011;38827;53.024;6.596;2023-04-25T08:36:03;5.18;;;1.10;;
52962;SDS011;38827;53.024;6.596;2023-04-25T08:38:29;8.75;;;1.40;;
52962;SDS011;38827;53.024;6.596;2023-04-25T08:40:58;8.75;;;1.13;;
52962;SDS011;38827;53.024;6.596;2023-04-25T08:46:23;6.30;;;1.20;;
52962;SDS011;38827;53.024;6.596;2023-04-25T08:48:51;5.15;;;1.40;;
52962;SDS011;38827;53.024;6.596;2023-04-25T08:51:23;4.50;;;0.90;;
52962;SDS011;38827;53.024;6.596;2023-04-25T08:53:51;3.10;;;0.98;;
52962;SDS011;38827;53.024;6.596;2023-04-25T08:58:46;3.45;;;1.02;;
52962;SDS011;38827;53.024;6.596;2023-04-25T09:01:23;4.03;;;1.10;;
52962;SDS011;38827;53.024;6.596;2023-04-25T09:04:17;3.40;;;0.82;;
52962;SDS011;38827;53.024;6.596;2023-04-25T09:06:45;4.32;;;1.40;;
52962;SDS011;38827;53.024;6.596;2023-04-25T09:09:11;3.70;;;0.85;;
52962;SDS011;38827;53.024;6.596;2023-04-25T09:11:37;4.60;;;1.00;;
52962;SDS011;38827;53.024;6.596;2023-04-25T09:16:57;2.97;;;1.08;;
52962;SDS011;38827;53.024;6.596;2023-04-25T09:19:28;4.72;;;0.90;;
52962;SDS011;38827;53.024;6.596;2023-04-25T09:22:00;4.50;;;1.38;;
52962;SDS011;38827;53.024;6.596;2023-04-25T09:24:31;4.15;;;1.92;;
52962;SDS011;38827;53.024;6.596;2023-04-25T09:27:02;3.70;;;1.05;;
52962;SDS011;38827;53.024;6.596;2023-04-25T09:29:32;3.72;;;1.00;;
52962;SDS011;38827;53.024;6.596;2023-04-25T09:32:18;4.65;;;1.17;;
52962;SDS011;38827;53.024;6.596;2023-04-25T09:34:48;5.38;;;1.55;;
52962;SDS011;38827;53.024;6.596;2023-04-25T09:37:25;5.65;;;1.02;;
52962;SDS011;38827;53.024;6.596;2023-04-25T09:40:04;4.72;;;1.08;;
52962;SDS011;38827;53.024;6.596;2023-04-25T09:42:32;5.20;;;1.40;;
52962;SDS011;38827;53.024;6.596;2023-04-25T09:49:05;4.95;;;1.60;;
52962;SDS011;38827;53.024;6.596;2023-04-25T09:51:32;5.70;;;1.10;;
52962;SDS011;38827;53.024;6.596;2023-04-25T09:53:59;3.90;;;0.90;;
52962;SDS011;38827;53.024;6.596;2023-04-25T09:56:26;7.78;;;1.60;;
52962;SDS011;38827;53.024;6.596;2023-04-25T10:01:53;4.00;;;1.00;;
52962;SDS011;38827;53.024;6.596;2023-04-25T10:04:23;4.20;;;1.50;;
52962;SDS011;38827;53.024;6.596;2023-04-25T10:06:53;3.17;;;0.80;;
52962;SDS011;38827;53.024;6.596;2023-04-25T10:09:25;4.43;;;0.95;;
52962;SDS011;38827;53.024;6.596;2023-04-25T10:11:55;4.45;;;1.17;;
52962;SDS011;38827;53.024;6.596;2023-04-25T10:14:25;7.00;;;2.08;;
52962;SDS011;38827;53.024;6.596;2023-04-25T10:20:32;5.80;;;1.50;;
52962;SDS011;38827;53.024;6.596;2023-04-25T10:23:00;5.50;;;1.30;;
52962;SDS011;38827;53.024;6.596;2023-04-25T10:25:36;8.90;;;1.75;;
52962;SDS011;38827;53.024;6.596;2023-04-25T10:28:03;4.22;;;1.40;;
52962;SDS011;38827;53.024;6.596;2023-04-25T10:30:29;5.10;;;1.40;;
52962;SDS011;38827;53.024;6.596;2023-04-25T10:32:55;5.93;;;1.65;;
52962;SDS011;38827;53.024;6.596;2023-04-25T10:35:25;3.53;;;1.25;;
52962;SDS011;38827;53.024;6.596;2023-04-25T10:38:05;8.38;;;1.40;;
52962;SDS011;38827;53.024;6.596;2023-04-25T10:40:34;5.57;;;1.23;;
52962;SDS011;38827;53.024;6.596;2023-04-25T10:46:01;5.32;;;1.30;;
52962;SDS011;38827;53.024;6.596;2023-04-25T10:48:29;5.03;;;1.20;;
52962;SDS011;38827;53.024;6.596;2023-04-25T10:51:11;4.38;;;1.17;;
52962;SDS011;38827;53.024;6.596;2023-04-25T10:53:41;5.63;;;1.27;;
52962;SDS011;38827;53.024;6.596;2023-04-25T10:56:19;7.25;;;1.23;;
52962;SDS011;38827;53.024;6.596;2023-04-25T10:58:46;6.10;;;1.42;;
52962;SDS011;38827;53.024;6.596;2023-04-25T11:01:19;7.32;;;1.40;;
52962;SDS011;38827;53.024;6.596;2023-04-25T11:03:46;7.50;;;1.63;;
52962;SDS011;38827;53.024;6.596;2023-04-25T11:06:20;6.30;;;1.40;;
52962;SDS011;38827;53.024;6.596;2023-04-25T11:11:21;8.73;;;1.75;;
52962;SDS011;38827;53.024;6.596;2023-04-25T11:13:50;4.82;;;1.58;;
52962;SDS011;38827;53.024;6.596;2023-04-25T11:16:19;6.10;;;1.63;;
52962;SDS011;38827;53.024;6.596;2023-04-25T11:18:44;5.43;;;1.40;;
52962;SDS011;38827;53.024;6.596;2023-04-25T11:21:16;7.22;;;1.60;;
52962;SDS011;38827;53.024;6.596;2023-04-25T11:23:44;4.53;;;1.13;;
52962;SDS011;38827;53.024;6.596;2023-04-25T11:26:12;7.75;;;1.60;;
52962;SDS011;38827;53.024;6.596;2023-04-25T11:28:39;9.95;;;2.03;;
52962;SDS011;38827;53.024;6.596;2023-04-25T11:31:04;6.13;;;1.27;;
52962;SDS011;38827;53.024;6.596;2023-04-25T11:33:31;7.25;;;1.52;;
52962;SDS011;38827;53.024;6.596;2023-04-25T11:35:57;8.00;;;1.63;;
52962;SDS011;38827;53.024;6.596;2023-04-25T11:38:24;6.37;;;1.83;;
52962;SDS011;38827;53.024;6.596;2023-04-25T11:40:54;5.85;;;1.50;;
52962;SDS011;38827;53.024;6.596;2023-04-25T11:43:20;7.67;;;1.40;;
52962;SDS011;38827;53.024;6.596;2023-04-25T11:45:50;5.80;;;1.42;;
52962;SDS011;38827;53.024;6.596;2023-04-25T11:48:17;7.25;;;1.38;;
52962;SDS011;38827;53.024;6.596;2023-04-25T11:50:43;7.55;;;1.50;;
52962;SDS011;38827;53.024;6.596;2023-04-25T11:53:09;5.68;;;1.42;;
52962;SDS011;38827;53.024;6.596;2023-04-25T11:55:35;8.32;;;1.80;;
52962;SDS011;38827;53.024;6.596;2023-04-25T11:58:01;6.43;;;1.83;;
52962;SDS011;38827;53.024;6.596;2023-04-25T12:00:29;5.63;;;1.23;;
52962;SDS011;38827;53.024;6.596;2023-04-25T12:02:55;4.65;;;1.30;;
52962;SDS011;38827;53.024;6.596;2023-04-25T12:05:28;4.00;;;1.33;;
52962;SDS011;38827;53.024;6.596;2023-04-25T12:07:55;5.07;;;1.17;;
52962;SDS011;38827;53.024;6.596;2023-04-25T12:10:21;7.10;;;1.50;;
52962;SDS011;38827;53.024;6.596;2023-04-25T12:12:49;4.15;;;1.00;;
52962;SDS011;38827;53.024;6.596;2023-04-25T12:15:19;3.57;;;0.70;;
52962;SDS011;38827;53.024;6.596;2023-04-25T12:17:50;3.65;;;1.10;;
52962;SDS011;38827;53.024;6.596;2023-04-25T12:20:20;5.68;;;1.08;;
52962;SDS011;38827;53.024;6.596;2023-04-25T12:22:50;3.08;;;1.27;;
52962;SDS011;38827;53.024;6.596;2023-04-25T12:28:20;4.55;;;1.25;;
52962;SDS011;38827;53.024;6.596;2023-04-25T12:33:30;3.92;;;1.20;;
52962;SDS011;38827;53.024;6.596;2023-04-25T12:35:58;5.40;;;1.10;;
52962;SDS011;38827;53.024;6.596;2023-04-25T12:38:28;5.72;;;1.55;;
52962;SDS011;38827;53.024;6.596;2023-04-25T12:40:56;7.47;;;1.35;;
52962;SDS011;38827;53.024;6.596;2023-04-25T12:43:23;4.63;;;1.40;;
52962;SDS011;38827;53.024;6.596;2023-04-25T12:45:52;5.88;;;1.40;;
52962;SDS011;38827;53.024;6.596;2023-04-25T12:48:22;8.10;;;1.30;;
52962;SDS011;38827;53.024;6.596;2023-04-25T12:50:49;3.97;;;1.17;;
52962;SDS011;38827;53.024;6.596;2023-04-25T12:53:17;6.78;;;1.55;;
52962;SDS011;38827;53.024;6.596;2023-04-25T12:55:43;7.78;;;1.40;;
52962;SDS011;38827;53.024;6.596;2023-04-25T12:58:16;6.22;;;1.67;;
52962;SDS011;38827;53.024;6.596;2023-04-25T13:00:42;6.20;;;1.33;;
52962;SDS011;38827;53.024;6.596;2023-04-25T13:03:09;4.83;;;1.50;;
52962;SDS011;38827;53.024;6.596;2023-04-25T13:08:02;5.22;;;1.30;;
52962;SDS011;38827;53.024;6.596;2023-04-25T13:10:28;7.85;;;1.38;;
52962;SDS011;38827;53.024;6.596;2023-04-25T13:12:53;8.98;;;1.58;;
52962;SDS011;38827;53.024;6.596;2023-04-25T13:15:19;6.65;;;1.55;;
52962;SDS011;38827;53.024;6.596;2023-04-25T13:17:45;6.47;;;1.63;;
52962;SDS011;38827;53.024;6.596;2023-04-25T13:20:11;6.97;;;1.20;;
52962;SDS011;38827;53.024;6.596;2023-04-25T13:25:04;4.00;;;1.10;;
52962;SDS011;38827;53.024;6.596;2023-04-25T13:27:32;5.10;;;1.60;;
52962;SDS011;38827;53.024;6.596;2023-04-25T13:29:59;3.92;;;1.08;;
52962;SDS011;38827;53.024;6.596;2023-04-25T13:32:26;3.53;;;1.20;;
52962;SDS011;38827;53.024;6.596;2023-04-25T13:34:52;4.97;;;1.50;;
52962;SDS011;38827;53.024;6.596;2023-04-25T13:37:18;3.87;;;1.20;;
52962;SDS011;38827;53.024;6.596;2023-04-25T13:39:44;3.33;;;0.95;;
52962;SDS011;38827;53.024;6.596;2023-04-25T13:42:10;4.22;;;1.10;;
52962;SDS011;38827;53.024;6.596;2023-04-25T13:44:36;5.82;;;1.80;;
52962;SDS011;38827;53.024;6.596;2023-04-25T13:47:02;6.97;;;1.30;;
52962;SDS011;38827;53.024;6.596;2023-04-25T13:49:27;6.78;;;1.27;;
52962;SDS011;38827;53.024;6.596;2023-04-25T13:51:53;9.02;;;1.75;;
52962;SDS011;38827;53.024;6.596;2023-04-25T13:54:19;8.43;;;1.40;;
52962;SDS011;38827;53.024;6.596;2023-04-25T13:56:45;6.00;;;1.63;;
52962;SDS011;38827;53.024;6.596;2023-04-25T13:59:10;7.55;;;1.58;;
52962;SDS011;38827;53.024;6.596;2023-04-25T14:01:36;7.10;;;1.50;;
52962;SDS011;38827;53.024;6.596;2023-04-25T14:04:03;5.57;;;1.35;;
52962;SDS011;38827;53.024;6.596;2023-04-25T14:06:29;4.33;;;1.10;;
52962;SDS011;38827;53.024;6.596;2023-04-25T14:08:56;5.32;;;1.17;;
52962;SDS011;38827;53.024;6.596;2023-04-25T14:11:22;6.78;;;1.52;;
52962;SDS011;38827;53.024;6.596;2023-04-25T14:13:47;8.75;;;1.60;;
52962;SDS011;38827;53.024;6.596;2023-04-25T14:16:14;4.90;;;1.55;;
52962;SDS011;38827;53.024;6.596;2023-04-25T14:18:41;5.72;;;1.20;;
52962;SDS011;38827;53.024;6.596;2023-04-25T14:21:06;6.38;;;1.50;;
52962;SDS011;38827;53.024;6.596;2023-04-25T14:23:32;6.43;;;1.75;;
52962;SDS011;38827;53.024;6.596;2023-04-25T14:25:58;7.35;;;2.17;;
52962;SDS011;38827;53.024;6.596;2023-04-25T14:28:23;6.88;;;1.80;;
52962;SDS011;38827;53.024;6.596;2023-04-25T14:30:49;5.72;;;1.38;;
52962;SDS011;38827;53.024;6.596;2023-04-25T14:33:15;5.35;;;1.30;;
52962;SDS011;38827;53.024;6.596;2023-04-25T14:35:40;8.07;;;1.75;;
52962;SDS011;38827;53.024;6.596;2023-04-25T14:38:06;5.88;;;1.48;;
52962;SDS011;38827;53.024;6.596;2023-04-25T14:40:33;6.83;;;1.30;;
52962;SDS011;38827;53.024;6.596;2023-04-25T14:42:58;10.20;;;1.95;;
52962;SDS011;38827;53.024;6.596;2023-04-25T14:45:24;5.05;;;1.30;;
52962;SDS011;38827;53.024;6.596;2023-04-25T14:47:50;7.85;;;1.58;;
52962;SDS011;38827;53.024;6.596;2023-04-25T14:50:16;7.57;;;1.63;;
52962;SDS011;38827;53.024;6.596;2023-04-25T14:52:43;7.25;;;1.48;;
52962;SDS011;38827;53.024;6.596;2023-04-25T14:55:10;6.43;;;1.45;;
52962;SDS011;38827;53.024;6.596;2023-04-25T14:57:39;7.72;;;1.63;;
52962;SDS011;38827;53.024;6.596;2023-04-25T15:00:05;7.57;;;1.80;;
52962;SDS011;38827;53.024;6.596;2023-04-25T15:02:34;6.47;;;1.60;;
52962;SDS011;38827;53.024;6.596;2023-04-25T15:05:00;3.95;;;1.08;;
52962;SDS011;38827;53.024;6.596;2023-04-25T15:07:26;7.30;;;1.92;;
52962;SDS011;38827;53.024;6.596;2023-04-25T15:09:52;5.35;;;1.13;;
52962;SDS011;38827;53.024;6.596;2023-04-25T15:16:00;5.80;;;1.52;;
52962;SDS011;38827;53.024;6.596;2023-04-25T15:18:26;8.85;;;2.15;;
52962;SDS011;38827;53.024;6.596;2023-04-25T15:20:51;7.97;;;2.10;;
52962;SDS011;38827;53.024;6.596;2023-04-25T15:23:19;6.22;;;1.25;;
52962;SDS011;38827;53.024;6.596;2023-04-25T15:25:49;7.60;;;1.50;;